Pagina principale
METAR-TAF:

METAR-TAF

Aeroporti :

Aerodromo Hinterstoisser-Zeltweg

Zeltweg, Austria

latitudine: 47-12N, longitudine: 014-45E, altezza: 677 m

Osservazione

Il bollettino è stato emesso 6 ore e 35 minuti fa, alle 05:20 UTC
Vento 1 kt da direzioni variabili
Temperature 14°C
Umidità 94%
Pressione 1022 hPa
Visibilità: 5000 m

METAR: LOXZ 210520Z VRB01KT 8000 5000W FEW003ST 14/13 Q1022 NOSIG

Ora: 13:55 (11:55 UTC)

Previsione

Il bollettino è stato emesso 6 ore e 40 minuti fa, alle 05:15 UTC
Previsione valida dal 21 alle 06 UTC al 21 alle 15 UTC
Vento 3 kt da direzioni variabili
Visibilità 10 km o più
Poco nuvoloso ad un'altezza di 7000 ft
Temporaneamente
dal 21 alle 12 UTC al 21 alle 15 UTC
Poco nuvoloso ad un'altezza di 6000 ft, Cumulonembo.
Nubi sparse ad un'altezza di 7000 ft

TAF: LOXZ 210515Z 2106/2115 VRB03KT 9999 FEW070 TEMPO 2112/2115 FEW060CB SCT070

Osservazioni e previsioni meteorologiche di più di 4000 aeroporti (messaggi METAR e TAF).

Le stazioni disponibili sono rappresentate dai dischi gialli e rossi sulla carta.

Puntare il mouse per vedere il nome della stazione.

Clicca sopra per visualizzare le osservazioni e previsioni meteorologiche.

Per cambiare la mappa : fare clic sui pulsanti verdi con una croce nera per ingrandire, il pulsante verde con un trattino per diminuire, o sulla freccia verde per le mappe adiacenti.


METAR-TAF: